Decoded Metar for DIAP (ABIDJAN in IVORY COAST) (IATA:ABJ) | Meteo·Mobile Aviation Weather
aviador You're here:

DIAP Decoded Metar

ABIDJAN in IVORY COAST
Report Time2018-11-16 07:30:00
UTC Time2018-11-16 07:54:54
Flight Rules vfr VFR
Wind090° at 02 kt
W.Decomp.*RWY 03: 0.8 kt HW 1.8 kt RCW
W.Rank090° ranks 30
Current wind is below 090° avg. (3.6)
Visibility9999 m
Phenomena:N/A
Clouds:Few 011 Hf
Expected CloudBase > 800 ft AGL from Temp-Dew spread
CeilingNone
Temp26°C (ISA +11)
Dew Point24°C (89% RH)
QNH1012 hPa
Density Alt1,729 ft
Elevation26 ft
Report Wrong Elevation
Raw Report
METAR DIAP 160730Z 09002KT 9999 FEW011 26/24 Q1012 NOSIG=

Extra information for DIAP:More info

Metar Taf Metar & Taf Last 4 Metars F.Rules Stats Wind Profile Meteogram Temp Stats Airport Information Weather charts Add Link Nearby VenuesMetar ALERT Operation Metar Decoded Social comments